sensor_id;sensor_type;location;lat;lon;timestamp;P1;durP1;ratioP1;P2;durP2;ratioP2
39020;SDS011;25188;51.958;5.842;2024-03-08T00:00:13;31.93;;;16.57;;
39020;SDS011;25188;51.958;5.842;2024-03-08T00:02:43;32.87;;;17.37;;
39020;SDS011;25188;51.958;5.842;2024-03-08T00:05:09;32.90;;;17.13;;
39020;SDS011;25188;51.958;5.842;2024-03-08T00:07:36;33.00;;;17.87;;
39020;SDS011;25188;51.958;5.842;2024-03-08T00:10:03;36.87;;;18.20;;
39020;SDS011;25188;51.958;5.842;2024-03-08T00:12:29;30.17;;;16.03;;
39020;SDS011;25188;51.958;5.842;2024-03-08T00:14:55;32.20;;;16.77;;
39020;SDS011;25188;51.958;5.842;2024-03-08T00:17:21;32.97;;;16.30;;
39020;SDS011;25188;51.958;5.842;2024-03-08T00:19:53;34.20;;;17.13;;
39020;SDS011;25188;51.958;5.842;2024-03-08T00:22:19;31.73;;;16.27;;
39020;SDS011;25188;51.958;5.842;2024-03-08T00:24:47;34.13;;;17.07;;
39020;SDS011;25188;51.958;5.842;2024-03-08T00:27:15;29.13;;;15.60;;
39020;SDS011;25188;51.958;5.842;2024-03-08T00:29:41;32.13;;;16.33;;
39020;SDS011;25188;51.958;5.842;2024-03-08T00:32:07;31.83;;;16.43;;
39020;SDS011;25188;51.958;5.842;2024-03-08T00:34:36;29.03;;;15.77;;
39020;SDS011;25188;51.958;5.842;2024-03-08T00:37:02;31.73;;;15.90;;
39020;SDS011;25188;51.958;5.842;2024-03-08T00:39:29;32.57;;;16.37;;
39020;SDS011;25188;51.958;5.842;2024-03-08T00:41:54;28.83;;;15.00;;
39020;SDS011;25188;51.958;5.842;2024-03-08T00:44:20;32.73;;;16.43;;
39020;SDS011;25188;51.958;5.842;2024-03-08T00:46:46;29.47;;;15.07;;
39020;SDS011;25188;51.958;5.842;2024-03-08T00:49:11;32.10;;;17.10;;
39020;SDS011;25188;51.958;5.842;2024-03-08T00:51:37;30.57;;;16.03;;
39020;SDS011;25188;51.958;5.842;2024-03-08T00:54:03;29.63;;;15.80;;
39020;SDS011;25188;51.958;5.842;2024-03-08T00:56:29;32.37;;;15.73;;
39020;SDS011;25188;51.958;5.842;2024-03-08T00:58:54;30.70;;;15.53;;
39020;SDS011;25188;51.958;5.842;2024-03-08T01:01:20;26.30;;;15.07;;
39020;SDS011;25188;51.958;5.842;2024-03-08T01:03:46;29.40;;;15.03;;
39020;SDS011;25188;51.958;5.842;2024-03-08T01:06:12;32.00;;;16.37;;
39020;SDS011;25188;51.958;5.842;2024-03-08T01:08:37;26.03;;;13.80;;
39020;SDS011;25188;51.958;5.842;2024-03-08T01:11:03;28.47;;;15.63;;
39020;SDS011;25188;51.958;5.842;2024-03-08T01:13:32;28.20;;;16.00;;
39020;SDS011;25188;51.958;5.842;2024-03-08T01:15:58;32.30;;;16.63;;
39020;SDS011;25188;51.958;5.842;2024-03-08T01:18:23;30.33;;;16.10;;
39020;SDS011;25188;51.958;5.842;2024-03-08T01:20:49;29.93;;;16.23;;
39020;SDS011;25188;51.958;5.842;2024-03-08T01:23:15;31.07;;;16.37;;
39020;SDS011;25188;51.958;5.842;2024-03-08T01:25:41;28.60;;;15.73;;
39020;SDS011;25188;51.958;5.842;2024-03-08T01:28:08;27.03;;;15.53;;
39020;SDS011;25188;51.958;5.842;2024-03-08T01:30:34;28.83;;;16.33;;
39020;SDS011;25188;51.958;5.842;2024-03-08T01:33:01;29.47;;;16.63;;
39020;SDS011;25188;51.958;5.842;2024-03-08T01:35:27;29.23;;;16.33;;
39020;SDS011;25188;51.958;5.842;2024-03-08T01:37:53;37.00;;;18.43;;
39020;SDS011;25188;51.958;5.842;2024-03-08T01:40:19;30.57;;;16.80;;
39020;SDS011;25188;51.958;5.842;2024-03-08T01:42:45;31.10;;;15.93;;
39020;SDS011;25188;51.958;5.842;2024-03-08T01:45:11;27.90;;;17.50;;
39020;SDS011;25188;51.958;5.842;2024-03-08T01:47:38;26.97;;;15.07;;
39020;SDS011;25188;51.958;5.842;2024-03-08T01:50:11;26.33;;;15.50;;
39020;SDS011;25188;51.958;5.842;2024-03-08T01:52:37;29.13;;;15.70;;
39020;SDS011;25188;51.958;5.842;2024-03-08T01:55:03;28.87;;;16.67;;
39020;SDS011;25188;51.958;5.842;2024-03-08T01:57:32;26.23;;;15.30;;
39020;SDS011;25188;51.958;5.842;2024-03-08T02:00:03;27.73;;;15.67;;
39020;SDS011;25188;51.958;5.842;2024-03-08T02:02:30;29.03;;;16.43;;
39020;SDS011;25188;51.958;5.842;2024-03-08T02:04:57;29.87;;;15.87;;
39020;SDS011;25188;51.958;5.842;2024-03-08T02:07:23;29.87;;;17.77;;
39020;SDS011;25188;51.958;5.842;2024-03-08T02:09:49;30.60;;;17.17;;
39020;SDS011;25188;51.958;5.842;2024-03-08T02:12:16;28.33;;;17.40;;
39020;SDS011;25188;51.958;5.842;2024-03-08T02:14:41;27.43;;;16.27;;
39020;SDS011;25188;51.958;5.842;2024-03-08T02:17:09;28.77;;;16.60;;
39020;SDS011;25188;51.958;5.842;2024-03-08T02:19:34;29.20;;;17.20;;
39020;SDS011;25188;51.958;5.842;2024-03-08T02:22:01;30.67;;;16.23;;
39020;SDS011;25188;51.958;5.842;2024-03-08T02:24:29;27.93;;;16.70;;
39020;SDS011;25188;51.958;5.842;2024-03-08T02:26:55;31.07;;;16.30;;
39020;SDS011;25188;51.958;5.842;2024-03-08T02:29:21;26.90;;;15.87;;
39020;SDS011;25188;51.958;5.842;2024-03-08T02:31:50;31.77;;;16.77;;
39020;SDS011;25188;51.958;5.842;2024-03-08T02:34:16;30.90;;;17.17;;
39020;SDS011;25188;51.958;5.842;2024-03-08T02:36:42;30.93;;;17.50;;
39020;SDS011;25188;51.958;5.842;2024-03-08T02:39:08;29.50;;;17.77;;
39020;SDS011;25188;51.958;5.842;2024-03-08T02:41:35;28.30;;;15.77;;
39020;SDS011;25188;51.958;5.842;2024-03-08T02:44:01;31.27;;;17.57;;
39020;SDS011;25188;51.958;5.842;2024-03-08T02:46:27;28.00;;;16.87;;
39020;SDS011;25188;51.958;5.842;2024-03-08T02:48:53;30.40;;;16.00;;
39020;SDS011;25188;51.958;5.842;2024-03-08T02:51:18;29.07;;;17.27;;
39020;SDS011;25188;51.958;5.842;2024-03-08T02:53:45;30.00;;;16.47;;
39020;SDS011;25188;51.958;5.842;2024-03-08T02:56:13;30.40;;;16.63;;
39020;SDS011;25188;51.958;5.842;2024-03-08T02:58:41;32.50;;;17.43;;
39020;SDS011;25188;51.958;5.842;2024-03-08T03:01:07;30.93;;;17.87;;
39020;SDS011;25188;51.958;5.842;2024-03-08T03:03:35;29.83;;;17.23;;
39020;SDS011;25188;51.958;5.842;2024-03-08T03:06:01;31.90;;;17.87;;
39020;SDS011;25188;51.958;5.842;2024-03-08T03:08:26;26.97;;;17.07;;
39020;SDS011;25188;51.958;5.842;2024-03-08T03:10:52;27.27;;;16.83;;
39020;SDS011;25188;51.958;5.842;2024-03-08T03:13:18;28.57;;;16.73;;
39020;SDS011;25188;51.958;5.842;2024-03-08T03:15:45;31.83;;;18.50;;
39020;SDS011;25188;51.958;5.842;2024-03-08T03:18:11;32.97;;;18.57;;
39020;SDS011;25188;51.958;5.842;2024-03-08T03:20:37;27.50;;;17.03;;
39020;SDS011;25188;51.958;5.842;2024-03-08T03:23:07;29.33;;;17.40;;
39020;SDS011;25188;51.958;5.842;2024-03-08T03:25:34;29.23;;;17.13;;
39020;SDS011;25188;51.958;5.842;2024-03-08T03:28:03;28.97;;;16.73;;
39020;SDS011;25188;51.958;5.842;2024-03-08T03:30:29;33.20;;;18.47;;
39020;SDS011;25188;51.958;5.842;2024-03-08T03:32:59;30.30;;;18.30;;
39020;SDS011;25188;51.958;5.842;2024-03-08T03:35:31;22.95;;;12.70;;
39020;SDS011;25188;51.958;5.842;2024-03-08T03:37:57;26.90;;;16.03;;
39020;SDS011;25188;51.958;5.842;2024-03-08T03:40:29;30.00;;;17.33;;
39020;SDS011;25188;51.958;5.842;2024-03-08T03:42:55;28.10;;;16.90;;
39020;SDS011;25188;51.958;5.842;2024-03-08T03:45:21;29.83;;;17.87;;
39020;SDS011;25188;51.958;5.842;2024-03-08T03:47:47;28.43;;;17.77;;
39020;SDS011;25188;51.958;5.842;2024-03-08T03:50:12;33.53;;;16.90;;
39020;SDS011;25188;51.958;5.842;2024-03-08T03:52:38;33.23;;;18.03;;
39020;SDS011;25188;51.958;5.842;2024-03-08T03:55:04;30.70;;;17.70;;
39020;SDS011;25188;51.958;5.842;2024-03-08T03:57:32;28.83;;;18.53;;
39020;SDS011;25188;51.958;5.842;2024-03-08T03:59:58;33.43;;;18.93;;
39020;SDS011;25188;51.958;5.842;2024-03-08T04:02:24;30.03;;;17.97;;
39020;SDS011;25188;51.958;5.842;2024-03-08T04:04:51;39.50;;;18.20;;
39020;SDS011;25188;51.958;5.842;2024-03-08T04:07:17;27.83;;;17.20;;
39020;SDS011;25188;51.958;5.842;2024-03-08T04:09:43;29.13;;;17.10;;
39020;SDS011;25188;51.958;5.842;2024-03-08T04:12:09;31.00;;;17.90;;
39020;SDS011;25188;51.958;5.842;2024-03-08T04:14:35;28.27;;;17.60;;
39020;SDS011;25188;51.958;5.842;2024-03-08T04:17:01;29.87;;;18.37;;
39020;SDS011;25188;51.958;5.842;2024-03-08T04:19:27;34.83;;;19.03;;
39020;SDS011;25188;51.958;5.842;2024-03-08T04:21:54;31.73;;;17.60;;
39020;SDS011;25188;51.958;5.842;2024-03-08T04:24:20;31.03;;;18.50;;
39020;SDS011;25188;51.958;5.842;2024-03-08T04:26:46;29.90;;;17.87;;
39020;SDS011;25188;51.958;5.842;2024-03-08T04:29:12;31.03;;;17.13;;
39020;SDS011;25188;51.958;5.842;2024-03-08T04:31:39;32.17;;;17.60;;
39020;SDS011;25188;51.958;5.842;2024-03-08T04:34:05;28.60;;;17.40;;
39020;SDS011;25188;51.958;5.842;2024-03-08T04:36:31;31.17;;;17.93;;
39020;SDS011;25188;51.958;5.842;2024-03-08T04:38:59;33.33;;;19.37;;
39020;SDS011;25188;51.958;5.842;2024-03-08T04:41:25;32.97;;;18.90;;
39020;SDS011;25188;51.958;5.842;2024-03-08T04:43:51;31.80;;;16.93;;
39020;SDS011;25188;51.958;5.842;2024-03-08T04:46:17;31.33;;;18.63;;
39020;SDS011;25188;51.958;5.842;2024-03-08T04:48:43;32.40;;;18.60;;
39020;SDS011;25188;51.958;5.842;2024-03-08T04:51:08;31.47;;;19.13;;
39020;SDS011;25188;51.958;5.842;2024-03-08T04:53:35;31.80;;;18.37;;
39020;SDS011;25188;51.958;5.842;2024-03-08T04:56:00;30.03;;;16.17;;
39020;SDS011;25188;51.958;5.842;2024-03-08T04:58:31;31.40;;;17.87;;
39020;SDS011;25188;51.958;5.842;2024-03-08T05:00:59;34.87;;;19.47;;
39020;SDS011;25188;51.958;5.842;2024-03-08T05:03:26;33.17;;;18.73;;
39020;SDS011;25188;51.958;5.842;2024-03-08T05:05:52;34.07;;;18.70;;
39020;SDS011;25188;51.958;5.842;2024-03-08T05:08:18;31.80;;;18.37;;
39020;SDS011;25188;51.958;5.842;2024-03-08T05:10:44;31.47;;;17.77;;
39020;SDS011;25188;51.958;5.842;2024-03-08T05:13:13;31.60;;;18.47;;
39020;SDS011;25188;51.958;5.842;2024-03-08T05:15:39;35.90;;;18.40;;
39020;SDS011;25188;51.958;5.842;2024-03-08T05:18:04;31.67;;;17.47;;
39020;SDS011;25188;51.958;5.842;2024-03-08T05:20:30;33.47;;;19.33;;
39020;SDS011;25188;51.958;5.842;2024-03-08T05:22:56;31.37;;;18.43;;
39020;SDS011;25188;51.958;5.842;2024-03-08T05:25:25;32.87;;;20.17;;
39020;SDS011;25188;51.958;5.842;2024-03-08T05:27:51;35.30;;;19.00;;
39020;SDS011;25188;51.958;5.842;2024-03-08T05:30:17;34.40;;;19.37;;
39020;SDS011;25188;51.958;5.842;2024-03-08T05:32:43;33.07;;;18.97;;
39020;SDS011;25188;51.958;5.842;2024-03-08T05:35:12;33.73;;;19.13;;
39020;SDS011;25188;51.958;5.842;2024-03-08T05:37:38;33.00;;;18.37;;
39020;SDS011;25188;51.958;5.842;2024-03-08T05:40:07;31.57;;;17.57;;
39020;SDS011;25188;51.958;5.842;2024-03-08T05:42:36;29.77;;;18.47;;
39020;SDS011;25188;51.958;5.842;2024-03-08T05:45:02;34.13;;;19.07;;
39020;SDS011;25188;51.958;5.842;2024-03-08T05:47:36;33.13;;;18.60;;
39020;SDS011;25188;51.958;5.842;2024-03-08T05:50:01;34.37;;;19.47;;
39020;SDS011;25188;51.958;5.842;2024-03-08T05:52:27;31.63;;;18.77;;
39020;SDS011;25188;51.958;5.842;2024-03-08T05:54:53;33.73;;;18.07;;
39020;SDS011;25188;51.958;5.842;2024-03-08T05:57:18;33.27;;;19.43;;
39020;SDS011;25188;51.958;5.842;2024-03-08T05:59:44;33.40;;;18.93;;
39020;SDS011;25188;51.958;5.842;2024-03-08T06:02:10;30.43;;;18.73;;
39020;SDS011;25188;51.958;5.842;2024-03-08T06:04:36;32.10;;;18.43;;
39020;SDS011;25188;51.958;5.842;2024-03-08T06:07:03;32.20;;;17.53;;
39020;SDS011;25188;51.958;5.842;2024-03-08T06:09:29;33.40;;;18.60;;
39020;SDS011;25188;51.958;5.842;2024-03-08T06:11:55;34.87;;;18.20;;
39020;SDS011;25188;51.958;5.842;2024-03-08T06:14:22;33.60;;;18.50;;
39020;SDS011;25188;51.958;5.842;2024-03-08T06:16:48;35.90;;;20.40;;
39020;SDS011;25188;51.958;5.842;2024-03-08T06:19:15;33.23;;;18.30;;
39020;SDS011;25188;51.958;5.842;2024-03-08T06:21:41;34.13;;;18.47;;
39020;SDS011;25188;51.958;5.842;2024-03-08T06:24:06;33.53;;;18.77;;
39020;SDS011;25188;51.958;5.842;2024-03-08T06:26:32;33.30;;;18.53;;
39020;SDS011;25188;51.958;5.842;2024-03-08T06:28:58;34.00;;;17.77;;
39020;SDS011;25188;51.958;5.842;2024-03-08T06:31:23;35.17;;;20.23;;
39020;SDS011;25188;51.958;5.842;2024-03-08T06:33:49;34.53;;;20.07;;
39020;SDS011;25188;51.958;5.842;2024-03-08T06:36:18;36.70;;;21.17;;
39020;SDS011;25188;51.958;5.842;2024-03-08T06:38:46;38.47;;;21.33;;
39020;SDS011;25188;51.958;5.842;2024-03-08T06:41:15;34.47;;;19.27;;
39020;SDS011;25188;51.958;5.842;2024-03-08T06:43:44;40.57;;;20.47;;
39020;SDS011;25188;51.958;5.842;2024-03-08T06:46:11;33.27;;;19.33;;
39020;SDS011;25188;51.958;5.842;2024-03-08T06:48:41;35.80;;;20.63;;
39020;SDS011;25188;51.958;5.842;2024-03-08T06:51:07;35.57;;;19.90;;
39020;SDS011;25188;51.958;5.842;2024-03-08T06:53:32;35.10;;;20.57;;
39020;SDS011;25188;51.958;5.842;2024-03-08T06:56:00;32.33;;;19.07;;
39020;SDS011;25188;51.958;5.842;2024-03-08T06:58:26;32.23;;;19.53;;
39020;SDS011;25188;51.958;5.842;2024-03-08T07:00:53;35.70;;;20.77;;
39020;SDS011;25188;51.958;5.842;2024-03-08T07:03:19;36.97;;;21.33;;
39020;SDS011;25188;51.958;5.842;2024-03-08T07:05:47;34.73;;;20.43;;
39020;SDS011;25188;51.958;5.842;2024-03-08T07:08:13;33.57;;;19.47;;
39020;SDS011;25188;51.958;5.842;2024-03-08T07:10:39;35.43;;;18.83;;
39020;SDS011;25188;51.958;5.842;2024-03-08T07:13:07;34.97;;;20.93;;
39020;SDS011;25188;51.958;5.842;2024-03-08T07:15:33;36.60;;;21.23;;
39020;SDS011;25188;51.958;5.842;2024-03-08T07:17:58;35.97;;;20.23;;
39020;SDS011;25188;51.958;5.842;2024-03-08T07:20:25;33.03;;;19.27;;
39020;SDS011;25188;51.958;5.842;2024-03-08T07:22:50;37.20;;;19.93;;
39020;SDS011;25188;51.958;5.842;2024-03-08T07:25:16;31.60;;;19.03;;
39020;SDS011;25188;51.958;5.842;2024-03-08T07:27:49;33.00;;;18.67;;
39020;SDS011;25188;51.958;5.842;2024-03-08T07:30:19;33.90;;;19.33;;
39020;SDS011;25188;51.958;5.842;2024-03-08T07:33:07;32.37;;;19.90;;
39020;SDS011;25188;51.958;5.842;2024-03-08T07:35:36;34.50;;;19.40;;
39020;SDS011;25188;51.958;5.842;2024-03-08T07:38:06;35.43;;;20.70;;
39020;SDS011;25188;51.958;5.842;2024-03-08T07:40:39;33.23;;;19.33;;
39020;SDS011;25188;51.958;5.842;2024-03-08T07:43:09;37.97;;;19.20;;
39020;SDS011;25188;51.958;5.842;2024-03-08T07:45:36;34.13;;;19.93;;
39020;SDS011;25188;51.958;5.842;2024-03-08T07:48:05;37.27;;;20.70;;
39020;SDS011;25188;51.958;5.842;2024-03-08T07:50:38;36.63;;;21.07;;
39020;SDS011;25188;51.958;5.842;2024-03-08T07:53:05;35.43;;;21.23;;
39020;SDS011;25188;51.958;5.842;2024-03-08T07:55:32;34.03;;;20.87;;
39020;SDS011;25188;51.958;5.842;2024-03-08T07:57:58;37.33;;;20.73;;
39020;SDS011;25188;51.958;5.842;2024-03-08T08:00:25;38.83;;;22.77;;
39020;SDS011;25188;51.958;5.842;2024-03-08T08:02:52;34.37;;;20.00;;
39020;SDS011;25188;51.958;5.842;2024-03-08T08:05:18;34.80;;;20.67;;
39020;SDS011;25188;51.958;5.842;2024-03-08T08:07:44;34.93;;;20.13;;
39020;SDS011;25188;51.958;5.842;2024-03-08T08:10:11;34.30;;;20.40;;
39020;SDS011;25188;51.958;5.842;2024-03-08T08:12:46;33.00;;;20.63;;
39020;SDS011;25188;51.958;5.842;2024-03-08T08:15:13;36.73;;;22.40;;
39020;SDS011;25188;51.958;5.842;2024-03-08T08:17:40;33.53;;;20.40;;
39020;SDS011;25188;51.958;5.842;2024-03-08T08:20:07;35.90;;;20.83;;
39020;SDS011;25188;51.958;5.842;2024-03-08T08:22:34;37.27;;;21.07;;
39020;SDS011;25188;51.958;5.842;2024-03-08T08:25:00;35.67;;;21.63;;
39020;SDS011;25188;51.958;5.842;2024-03-08T08:27:26;38.13;;;22.03;;
39020;SDS011;25188;51.958;5.842;2024-03-08T08:29:52;34.03;;;21.47;;
39020;SDS011;25188;51.958;5.842;2024-03-08T08:32:18;39.30;;;23.20;;
39020;SDS011;25188;51.958;5.842;2024-03-08T08:34:45;37.53;;;22.53;;
39020;SDS011;25188;51.958;5.842;2024-03-08T08:37:11;39.93;;;22.90;;
39020;SDS011;25188;51.958;5.842;2024-03-08T08:39:37;33.37;;;21.03;;
39020;SDS011;25188;51.958;5.842;2024-03-08T08:42:03;35.23;;;21.60;;
39020;SDS011;25188;51.958;5.842;2024-03-08T08:44:29;36.00;;;21.27;;
39020;SDS011;25188;51.958;5.842;2024-03-08T08:46:56;35.47;;;21.53;;
39020;SDS011;25188;51.958;5.842;2024-03-08T08:49:22;39.03;;;22.57;;
39020;SDS011;25188;51.958;5.842;2024-03-08T08:51:52;36.50;;;22.43;;
39020;SDS011;25188;51.958;5.842;2024-03-08T08:54:18;33.93;;;20.83;;
39020;SDS011;25188;51.958;5.842;2024-03-08T08:56:44;35.20;;;22.23;;
39020;SDS011;25188;51.958;5.842;2024-03-08T08:59:10;36.80;;;20.83;;
39020;SDS011;25188;51.958;5.842;2024-03-08T09:01:39;38.13;;;22.47;;
39020;SDS011;25188;51.958;5.842;2024-03-08T09:04:05;37.53;;;21.43;;
39020;SDS011;25188;51.958;5.842;2024-03-08T09:06:31;33.97;;;20.83;;
39020;SDS011;25188;51.958;5.842;2024-03-08T09:08:57;38.23;;;22.40;;
39020;SDS011;25188;51.958;5.842;2024-03-08T09:11:23;37.97;;;22.23;;
39020;SDS011;25188;51.958;5.842;2024-03-08T09:13:50;35.53;;;22.37;;
39020;SDS011;25188;51.958;5.842;2024-03-08T09:16:16;37.30;;;22.30;;
39020;SDS011;25188;51.958;5.842;2024-03-08T09:18:42;35.30;;;20.87;;
39020;SDS011;25188;51.958;5.842;2024-03-08T09:21:08;36.20;;;21.20;;
39020;SDS011;25188;51.958;5.842;2024-03-08T09:23:38;35.17;;;22.03;;
39020;SDS011;25188;51.958;5.842;2024-03-08T09:26:05;34.57;;;20.43;;
39020;SDS011;25188;51.958;5.842;2024-03-08T09:28:34;35.13;;;21.13;;
39020;SDS011;25188;51.958;5.842;2024-03-08T09:31:01;35.13;;;20.93;;
39020;SDS011;25188;51.958;5.842;2024-03-08T09:33:26;34.93;;;21.17;;
39020;SDS011;25188;51.958;5.842;2024-03-08T09:35:53;32.17;;;20.63;;
39020;SDS011;25188;51.958;5.842;2024-03-08T09:38:19;32.40;;;21.13;;
39020;SDS011;25188;51.958;5.842;2024-03-08T09:40:45;31.17;;;20.37;;
39020;SDS011;25188;51.958;5.842;2024-03-08T09:43:13;35.77;;;21.73;;
39020;SDS011;25188;51.958;5.842;2024-03-08T09:45:38;33.63;;;22.03;;
39020;SDS011;25188;51.958;5.842;2024-03-08T09:48:11;29.83;;;18.33;;
39020;SDS011;25188;51.958;5.842;2024-03-08T09:50:42;29.63;;;19.63;;
39020;SDS011;25188;51.958;5.842;2024-03-08T09:53:08;28.87;;;19.17;;
39020;SDS011;25188;51.958;5.842;2024-03-08T09:55:36;35.93;;;20.33;;
39020;SDS011;25188;51.958;5.842;2024-03-08T09:58:06;31.37;;;20.17;;
39020;SDS011;25188;51.958;5.842;2024-03-08T10:00:55;29.07;;;19.43;;
39020;SDS011;25188;51.958;5.842;2024-03-08T10:03:29;30.43;;;19.63;;
39020;SDS011;25188;51.958;5.842;2024-03-08T10:05:57;29.47;;;19.07;;
39020;SDS011;25188;51.958;5.842;2024-03-08T10:08:26;26.67;;;17.17;;
39020;SDS011;25188;51.958;5.842;2024-03-08T10:10:54;31.67;;;18.43;;
39020;SDS011;25188;51.958;5.842;2024-03-08T10:13:23;27.63;;;17.27;;
39020;SDS011;25188;51.958;5.842;2024-03-08T10:15:52;26.33;;;15.87;;
39020;SDS011;25188;51.958;5.842;2024-03-08T10:18:18;20.67;;;13.40;;
39020;SDS011;25188;51.958;5.842;2024-03-08T10:20:43;23.02;;;14.02;;
39020;SDS011;25188;51.958;5.842;2024-03-08T10:23:09;24.02;;;14.00;;
39020;SDS011;25188;51.958;5.842;2024-03-08T10:25:35;19.95;;;12.70;;
39020;SDS011;25188;51.958;5.842;2024-03-08T10:28:03;18.05;;;11.52;;
39020;SDS011;25188;51.958;5.842;2024-03-08T10:30:29;15.65;;;10.63;;
39020;SDS011;25188;51.958;5.842;2024-03-08T10:32:55;16.80;;;11.23;;
39020;SDS011;25188;51.958;5.842;2024-03-08T10:35:21;15.20;;;10.15;;
39020;SDS011;25188;51.958;5.842;2024-03-08T10:37:49;14.18;;;10.52;;
39020;SDS011;25188;51.958;5.842;2024-03-08T10:40:25;13.43;;;10.32;;
39020;SDS011;25188;51.958;5.842;2024-03-08T10:42:58;12.63;;;8.63;;
39020;SDS011;25188;51.958;5.842;2024-03-08T10:45:37;14.57;;;10.60;;
39020;SDS011;25188;51.958;5.842;2024-03-08T10:50:41;11.10;;;9.10;;
39020;SDS011;25188;51.958;5.842;2024-03-08T10:53:10;13.80;;;10.18;;
39020;SDS011;25188;51.958;5.842;2024-03-08T10:55:39;14.30;;;10.35;;
39020;SDS011;25188;51.958;5.842;2024-03-08T10:58:08;15.23;;;9.82;;
39020;SDS011;25188;51.958;5.842;2024-03-08T11:00:34;11.15;;;8.00;;
39020;SDS011;25188;51.958;5.842;2024-03-08T11:03:01;14.57;;;9.57;;
39020;SDS011;25188;51.958;5.842;2024-03-08T11:05:38;11.75;;;9.30;;
39020;SDS011;25188;51.958;5.842;2024-03-08T11:10:47;14.27;;;9.98;;
39020;SDS011;25188;51.958;5.842;2024-03-08T11:18:55;11.90;;;9.60;;
39020;SDS011;25188;51.958;5.842;2024-03-08T11:21:30;12.13;;;9.25;;
39020;SDS011;25188;51.958;5.842;2024-03-08T11:24:05;11.70;;;8.45;;
39020;SDS011;25188;51.958;5.842;2024-03-08T11:26:33;10.88;;;8.63;;
39020;SDS011;25188;51.958;5.842;2024-03-08T11:35:23;11.65;;;8.82;;
39020;SDS011;25188;51.958;5.842;2024-03-08T13:10:57;13.55;;;10.82;;
39020;SDS011;25188;51.958;5.842;2024-03-08T13:13:24;14.45;;;11.57;;
39020;SDS011;25188;51.958;5.842;2024-03-08T13:15:50;15.90;;;10.20;;
39020;SDS011;25188;51.958;5.842;2024-03-08T13:18:16;12.25;;;10.02;;
39020;SDS011;25188;51.958;5.842;2024-03-08T13:20:42;12.20;;;9.98;;
39020;SDS011;25188;51.958;5.842;2024-03-08T13:23:14;11.75;;;9.90;;
39020;SDS011;25188;51.958;5.842;2024-03-08T13:25:39;14.57;;;10.43;;
39020;SDS011;25188;51.958;5.842;2024-03-08T13:28:06;14.70;;;11.02;;
39020;SDS011;25188;51.958;5.842;2024-03-08T13:30:31;12.23;;;10.27;;
39020;SDS011;25188;51.958;5.842;2024-03-08T13:32:57;13.48;;;10.40;;
39020;SDS011;25188;51.958;5.842;2024-03-08T13:35:23;12.88;;;10.50;;
39020;SDS011;25188;51.958;5.842;2024-03-08T13:37:53;12.63;;;10.40;;
39020;SDS011;25188;51.958;5.842;2024-03-08T13:40:18;12.00;;;10.20;;
39020;SDS011;25188;51.958;5.842;2024-03-08T13:42:45;12.73;;;10.27;;
39020;SDS011;25188;51.958;5.842;2024-03-08T13:45:12;14.45;;;11.63;;
39020;SDS011;25188;51.958;5.842;2024-03-08T13:47:39;14.07;;;11.43;;
39020;SDS011;25188;51.958;5.842;2024-03-08T13:50:06;12.50;;;9.90;;
39020;SDS011;25188;51.958;5.842;2024-03-08T13:52:36;12.98;;;9.80;;
39020;SDS011;25188;51.958;5.842;2024-03-08T13:55:03;12.55;;;10.68;;
39020;SDS011;25188;51.958;5.842;2024-03-08T13:57:30;13.68;;;10.32;;
39020;SDS011;25188;51.958;5.842;2024-03-08T13:59:57;13.38;;;10.30;;
39020;SDS011;25188;51.958;5.842;2024-03-08T14:02:23;12.60;;;9.77;;
39020;SDS011;25188;51.958;5.842;2024-03-08T14:04:53;13.65;;;9.75;;
39020;SDS011;25188;51.958;5.842;2024-03-08T14:07:20;13.05;;;10.07;;
39020;SDS011;25188;51.958;5.842;2024-03-08T14:09:46;13.18;;;9.85;;
39020;SDS011;25188;51.958;5.842;2024-03-08T14:12:11;14.05;;;10.73;;
39020;SDS011;25188;51.958;5.842;2024-03-08T14:14:41;14.63;;;10.85;;
39020;SDS011;25188;51.958;5.842;2024-03-08T14:17:07;13.43;;;10.07;;
39020;SDS011;25188;51.958;5.842;2024-03-08T14:19:35;13.57;;;10.13;;
39020;SDS011;25188;51.958;5.842;2024-03-08T14:22:04;11.15;;;9.00;;
39020;SDS011;25188;51.958;5.842;2024-03-08T14:24:36;13.38;;;10.43;;
39020;SDS011;25188;51.958;5.842;2024-03-08T14:27:02;16.08;;;10.50;;
39020;SDS011;25188;51.958;5.842;2024-03-08T14:29:28;12.48;;;9.80;;
39020;SDS011;25188;51.958;5.842;2024-03-08T14:31:57;13.27;;;9.82;;
39020;SDS011;25188;51.958;5.842;2024-03-08T14:34:27;11.68;;;9.60;;
39020;SDS011;25188;51.958;5.842;2024-03-08T14:36:54;12.48;;;10.00;;
39020;SDS011;25188;51.958;5.842;2024-03-08T14:39:21;12.23;;;9.68;;
39020;SDS011;25188;51.958;5.842;2024-03-08T14:41:51;13.48;;;10.85;;
39020;SDS011;25188;51.958;5.842;2024-03-08T14:44:22;11.68;;;9.27;;
39020;SDS011;25188;51.958;5.842;2024-03-08T14:46:51;12.95;;;10.38;;
39020;SDS011;25188;51.958;5.842;2024-03-08T14:49:17;15.30;;;10.57;;
39020;SDS011;25188;51.958;5.842;2024-03-08T14:51:44;12.77;;;10.02;;
39020;SDS011;25188;51.958;5.842;2024-03-08T14:54:10;14.02;;;10.52;;
39020;SDS011;25188;51.958;5.842;2024-03-08T14:56:36;13.65;;;10.32;;
39020;SDS011;25188;51.958;5.842;2024-03-08T14:59:02;15.55;;;10.75;;
39020;SDS011;25188;51.958;5.842;2024-03-08T15:01:30;14.35;;;10.32;;
39020;SDS011;25188;51.958;5.842;2024-03-08T15:03:58;13.90;;;9.90;;
39020;SDS011;25188;51.958;5.842;2024-03-08T15:06:33;13.02;;;9.80;;
39020;SDS011;25188;51.958;5.842;2024-03-08T15:09:03;12.30;;;10.02;;
39020;SDS011;25188;51.958;5.842;2024-03-08T15:11:40;13.82;;;10.75;;
39020;SDS011;25188;51.958;5.842;2024-03-08T15:14:07;14.02;;;10.68;;
39020;SDS011;25188;51.958;5.842;2024-03-08T15:16:36;11.57;;;9.15;;
39020;SDS011;25188;51.958;5.842;2024-03-08T15:19:05;13.55;;;10.15;;
39020;SDS011;25188;51.958;5.842;2024-03-08T15:21:30;12.38;;;9.65;;
39020;SDS011;25188;51.958;5.842;2024-03-08T15:23:57;13.35;;;10.25;;
39020;SDS011;25188;51.958;5.842;2024-03-08T15:26:22;13.55;;;10.80;;
39020;SDS011;25188;51.958;5.842;2024-03-08T15:28:50;14.82;;;11.07;;
39020;SDS011;25188;51.958;5.842;2024-03-08T15:31:17;13.63;;;10.23;;
39020;SDS011;25188;51.958;5.842;2024-03-08T15:33:45;12.60;;;9.48;;
39020;SDS011;25188;51.958;5.842;2024-03-08T15:36:16;13.80;;;10.40;;
39020;SDS011;25188;51.958;5.842;2024-03-08T15:38:45;12.65;;;10.10;;
39020;SDS011;25188;51.958;5.842;2024-03-08T15:41:12;13.38;;;10.63;;
39020;SDS011;25188;51.958;5.842;2024-03-08T15:43:41;12.90;;;10.27;;
39020;SDS011;25188;51.958;5.842;2024-03-08T15:46:08;13.73;;;10.52;;
39020;SDS011;25188;51.958;5.842;2024-03-08T15:48:35;15.57;;;11.18;;
39020;SDS011;25188;51.958;5.842;2024-03-08T15:51:02;15.40;;;10.30;;
39020;SDS011;25188;51.958;5.842;2024-03-08T15:53:30;13.75;;;10.57;;
39020;SDS011;25188;51.958;5.842;2024-03-08T15:55:57;14.25;;;10.32;;
39020;SDS011;25188;51.958;5.842;2024-03-08T15:58:23;13.07;;;9.43;;
39020;SDS011;25188;51.958;5.842;2024-03-08T16:00:52;14.02;;;9.30;;
39020;SDS011;25188;51.958;5.842;2024-03-08T16:03:18;13.20;;;10.25;;
39020;SDS011;25188;51.958;5.842;2024-03-08T16:05:45;13.35;;;10.65;;
39020;SDS011;25188;51.958;5.842;2024-03-08T16:08:11;13.80;;;10.07;;
39020;SDS011;25188;51.958;5.842;2024-03-08T16:10:42;15.32;;;11.30;;
39020;SDS011;25188;51.958;5.842;2024-03-08T16:13:14;14.63;;;11.82;;